sensor_id;sensor_type;location;lat;lon;timestamp;temperature;humidity
37984;DHT22;64625;50.882;4.376;2022-12-29T00:01:33;11.60;99.90
37984;DHT22;64625;50.882;4.376;2022-12-29T00:04:00;11.60;99.90
37984;DHT22;64625;50.882;4.376;2022-12-29T00:06:27;11.60;99.90
37984;DHT22;64625;50.882;4.376;2022-12-29T00:08:53;11.60;99.90
37984;DHT22;64625;50.882;4.376;2022-12-29T00:11:21;11.60;99.90
37984;DHT22;64625;50.882;4.376;2022-12-29T00:13:47;11.60;99.90
37984;DHT22;64625;50.882;4.376;2022-12-29T00:16:32;11.60;99.90
37984;DHT22;64625;50.882;4.376;2022-12-29T00:18:59;11.60;99.90
37984;DHT22;64625;50.882;4.376;2022-12-29T00:21:25;11.60;99.90
37984;DHT22;64625;50.882;4.376;2022-12-29T00:24:19;11.60;99.90
37984;DHT22;64625;50.882;4.376;2022-12-29T00:29:46;11.70;99.90
37984;DHT22;64625;50.882;4.376;2022-12-29T00:32:30;11.70;99.90
37984;DHT22;64625;50.882;4.376;2022-12-29T00:35:24;11.70;99.90
37984;DHT22;64625;50.882;4.376;2022-12-29T00:37:51;11.70;99.90
37984;DHT22;64625;50.882;4.376;2022-12-29T00:40:35;11.80;99.90
37984;DHT22;64625;50.882;4.376;2022-12-29T00:43:20;11.80;99.90
37984;DHT22;64625;50.882;4.376;2022-12-29T00:46:04;11.80;99.90
37984;DHT22;64625;50.882;4.376;2022-12-29T00:48:29;11.90;99.90
37984;DHT22;64625;50.882;4.376;2022-12-29T00:51:14;11.90;99.90
37984;DHT22;64625;50.882;4.376;2022-12-29T00:53:40;11.90;99.90
37984;DHT22;64625;50.882;4.376;2022-12-29T00:56:06;11.90;99.90
37984;DHT22;64625;50.882;4.376;2022-12-29T00:58:32;11.90;99.90
37984;DHT22;64625;50.882;4.376;2022-12-29T01:01:06;12.00;99.90
37984;DHT22;64625;50.882;4.376;2022-12-29T01:03:33;12.00;99.90
37984;DHT22;64625;50.882;4.376;2022-12-29T01:06:09;12.00;99.90
37984;DHT22;64625;50.882;4.376;2022-12-29T01:08:35;12.00;99.90
37984;DHT22;64625;50.882;4.376;2022-12-29T01:11:10;12.00;99.90
37984;DHT22;64625;50.882;4.376;2022-12-29T01:13:37;12.10;99.90
37984;DHT22;64625;50.882;4.376;2022-12-29T01:16:05;12.10;99.90
37984;DHT22;64625;50.882;4.376;2022-12-29T01:18:31;12.10;99.90
37984;DHT22;64625;50.882;4.376;2022-12-29T01:21:02;12.10;99.90
37984;DHT22;64625;50.882;4.376;2022-12-29T01:23:29;12.10;99.90
37984;DHT22;64625;50.882;4.376;2022-12-29T01:25:55;12.10;99.90
37984;DHT22;64625;50.882;4.376;2022-12-29T01:28:21;12.10;99.90
37984;DHT22;64625;50.882;4.376;2022-12-29T01:30:47;12.10;99.90
37984;DHT22;64625;50.882;4.376;2022-12-29T01:33:13;12.00;99.90
37984;DHT22;64625;50.882;4.376;2022-12-29T01:35:39;12.00;99.90
37984;DHT22;64625;50.882;4.376;2022-12-29T01:38:05;12.00;99.90
37984;DHT22;64625;50.882;4.376;2022-12-29T01:40:31;11.90;99.90
37984;DHT22;64625;50.882;4.376;2022-12-29T01:42:57;11.90;99.90
37984;DHT22;64625;50.882;4.376;2022-12-29T01:45:23;11.90;99.90
37984;DHT22;64625;50.882;4.376;2022-12-29T01:47:53;11.80;99.90
37984;DHT22;64625;50.882;4.376;2022-12-29T01:50:34;11.80;99.90
37984;DHT22;64625;50.882;4.376;2022-12-29T01:53:06;11.80;99.90
37984;DHT22;64625;50.882;4.376;2022-12-29T01:55:37;11.80;99.90
37984;DHT22;64625;50.882;4.376;2022-12-29T01:58:06;11.80;99.90
37984;DHT22;64625;50.882;4.376;2022-12-29T02:00:32;11.80;99.90
37984;DHT22;64625;50.882;4.376;2022-12-29T02:02:58;11.70;99.90
37984;DHT22;64625;50.882;4.376;2022-12-29T02:05:32;11.70;99.90
37984;DHT22;64625;50.882;4.376;2022-12-29T02:08:00;11.70;99.90
37984;DHT22;64625;50.882;4.376;2022-12-29T02:10:29;11.70;99.90
37984;DHT22;64625;50.882;4.376;2022-12-29T02:12:56;11.70;99.90
37984;DHT22;64625;50.882;4.376;2022-12-29T02:37:40;11.00;99.90
37984;DHT22;64625;50.882;4.376;2022-12-29T02:40:23;10.90;99.90
37984;DHT22;64625;50.882;4.376;2022-12-29T02:43:11;10.90;99.90
37984;DHT22;64625;50.882;4.376;2022-12-29T02:46:00;10.80;99.90
37984;DHT22;64625;50.882;4.376;2022-12-29T02:48:38;10.70;99.90
37984;DHT22;64625;50.882;4.376;2022-12-29T02:51:20;10.70;99.90
37984;DHT22;64625;50.882;4.376;2022-12-29T02:53:46;10.70;99.90
37984;DHT22;64625;50.882;4.376;2022-12-29T02:56:31;10.60;99.90
37984;DHT22;64625;50.882;4.376;2022-12-29T02:58:57;10.60;99.90
37984;DHT22;64625;50.882;4.376;2022-12-29T03:04:44;10.50;99.90
37984;DHT22;64625;50.882;4.376;2022-12-29T03:07:43;10.50;99.90
37984;DHT22;64625;50.882;4.376;2022-12-29T03:13:01;10.40;99.90
37984;DHT22;64625;50.882;4.376;2022-12-29T03:15:58;10.40;99.90
37984;DHT22;64625;50.882;4.376;2022-12-29T03:21:14;10.20;99.90
37984;DHT22;64625;50.882;4.376;2022-12-29T03:23:44;10.20;99.90
37984;DHT22;64625;50.882;4.376;2022-12-29T03:26:14;10.10;99.90
37984;DHT22;64625;50.882;4.376;2022-12-29T03:28:51;10.10;99.90
37984;DHT22;64625;50.882;4.376;2022-12-29T03:31:19;10.10;99.90
37984;DHT22;64625;50.882;4.376;2022-12-29T03:33:47;10.00;99.90
37984;DHT22;64625;50.882;4.376;2022-12-29T03:36:22;10.00;99.90
37984;DHT22;64625;50.882;4.376;2022-12-29T03:39:03;10.00;99.90
37984;DHT22;64625;50.882;4.376;2022-12-29T03:41:42;10.00;99.90
37984;DHT22;64625;50.882;4.376;2022-12-29T03:44:10;10.00;99.90
37984;DHT22;64625;50.882;4.376;2022-12-29T03:46:37;10.00;99.90
37984;DHT22;64625;50.882;4.376;2022-12-29T03:49:02;10.00;99.90
37984;DHT22;64625;50.882;4.376;2022-12-29T03:51:28;10.00;99.90
37984;DHT22;64625;50.882;4.376;2022-12-29T03:53:54;10.10;99.90
37984;DHT22;64625;50.882;4.376;2022-12-29T03:56:20;10.10;99.90
37984;DHT22;64625;50.882;4.376;2022-12-29T03:58:45;10.10;99.90
37984;DHT22;64625;50.882;4.376;2022-12-29T04:01:11;10.10;99.90
37984;DHT22;64625;50.882;4.376;2022-12-29T04:03:37;10.10;99.90
37984;DHT22;64625;50.882;4.376;2022-12-29T04:06:04;10.20;99.90
37984;DHT22;64625;50.882;4.376;2022-12-29T04:08:30;10.20;99.90
37984;DHT22;64625;50.882;4.376;2022-12-29T04:10:55;10.20;99.90
37984;DHT22;64625;50.882;4.376;2022-12-29T04:13:21;10.20;99.90
37984;DHT22;64625;50.882;4.376;2022-12-29T04:15:47;10.20;99.90
37984;DHT22;64625;50.882;4.376;2022-12-29T04:18:13;10.20;99.90
37984;DHT22;64625;50.882;4.376;2022-12-29T04:20:39;10.10;99.90
37984;DHT22;64625;50.882;4.376;2022-12-29T04:23:23;10.10;99.90
37984;DHT22;64625;50.882;4.376;2022-12-29T04:25:49;10.10;99.90
37984;DHT22;64625;50.882;4.376;2022-12-29T04:28:18;10.10;99.90
37984;DHT22;64625;50.882;4.376;2022-12-29T04:30:45;10.10;99.90
37984;DHT22;64625;50.882;4.376;2022-12-29T04:33:11;10.10;99.90
37984;DHT22;64625;50.882;4.376;2022-12-29T04:35:37;10.10;99.90
37984;DHT22;64625;50.882;4.376;2022-12-29T04:38:03;10.10;99.90
37984;DHT22;64625;50.882;4.376;2022-12-29T04:40:29;10.10;99.90
37984;DHT22;64625;50.882;4.376;2022-12-29T04:42:55;10.10;99.90
37984;DHT22;64625;50.882;4.376;2022-12-29T04:45:21;10.10;99.90
37984;DHT22;64625;50.882;4.376;2022-12-29T04:47:47;10.10;99.90
37984;DHT22;64625;50.882;4.376;2022-12-29T04:50:14;10.10;99.90
37984;DHT22;64625;50.882;4.376;2022-12-29T04:52:39;10.10;99.90
37984;DHT22;64625;50.882;4.376;2022-12-29T04:55:06;10.10;99.90
37984;DHT22;64625;50.882;4.376;2022-12-29T04:57:32;10.10;99.90
37984;DHT22;64625;50.882;4.376;2022-12-29T04:59:57;10.10;99.90
37984;DHT22;64625;50.882;4.376;2022-12-29T05:02:26;10.10;99.90
37984;DHT22;64625;50.882;4.376;2022-12-29T05:04:52;10.10;99.90
37984;DHT22;64625;50.882;4.376;2022-12-29T05:07:19;10.20;99.90
37984;DHT22;64625;50.882;4.376;2022-12-29T05:09:44;10.20;99.90
37984;DHT22;64625;50.882;4.376;2022-12-29T05:12:10;10.20;99.90
37984;DHT22;64625;50.882;4.376;2022-12-29T05:14:36;10.20;99.90
37984;DHT22;64625;50.882;4.376;2022-12-29T05:17:02;10.20;99.90
37984;DHT22;64625;50.882;4.376;2022-12-29T05:19:27;10.20;99.90
37984;DHT22;64625;50.882;4.376;2022-12-29T05:21:53;10.30;99.90
37984;DHT22;64625;50.882;4.376;2022-12-29T05:24:19;10.30;99.90
37984;DHT22;64625;50.882;4.376;2022-12-29T05:26:45;10.30;99.90
37984;DHT22;64625;50.882;4.376;2022-12-29T05:29:11;10.40;99.90
37984;DHT22;64625;50.882;4.376;2022-12-29T05:31:40;10.40;99.90
37984;DHT22;64625;50.882;4.376;2022-12-29T05:34:06;10.40;99.90
37984;DHT22;64625;50.882;4.376;2022-12-29T05:36:32;10.40;99.90
37984;DHT22;64625;50.882;4.376;2022-12-29T05:38:58;10.40;99.90
37984;DHT22;64625;50.882;4.376;2022-12-29T05:41:24;10.40;99.90
37984;DHT22;64625;50.882;4.376;2022-12-29T05:43:49;10.50;99.90
37984;DHT22;64625;50.882;4.376;2022-12-29T05:46:15;10.50;99.90
37984;DHT22;64625;50.882;4.376;2022-12-29T05:48:41;10.50;99.90
37984;DHT22;64625;50.882;4.376;2022-12-29T05:51:07;10.50;99.90
37984;DHT22;64625;50.882;4.376;2022-12-29T05:53:33;10.50;99.90
37984;DHT22;64625;50.882;4.376;2022-12-29T05:55:58;10.50;99.90
37984;DHT22;64625;50.882;4.376;2022-12-29T05:58:24;10.50;99.90
37984;DHT22;64625;50.882;4.376;2022-12-29T06:00:51;10.50;99.90
37984;DHT22;64625;50.882;4.376;2022-12-29T06:03:16;10.50;99.90
37984;DHT22;64625;50.882;4.376;2022-12-29T06:05:45;10.60;99.90
37984;DHT22;64625;50.882;4.376;2022-12-29T06:08:12;10.60;99.90
37984;DHT22;64625;50.882;4.376;2022-12-29T06:10:37;10.60;99.90
37984;DHT22;64625;50.882;4.376;2022-12-29T06:13:03;10.50;99.90
37984;DHT22;64625;50.882;4.376;2022-12-29T06:15:33;10.50;99.90
37984;DHT22;64625;50.882;4.376;2022-12-29T06:17:59;10.50;99.90
37984;DHT22;64625;50.882;4.376;2022-12-29T06:20:25;10.50;99.90
37984;DHT22;64625;50.882;4.376;2022-12-29T06:22:51;10.50;99.90
37984;DHT22;64625;50.882;4.376;2022-12-29T06:25:16;10.50;99.90
37984;DHT22;64625;50.882;4.376;2022-12-29T06:27:42;10.50;99.90
37984;DHT22;64625;50.882;4.376;2022-12-29T06:30:09;10.50;99.90
37984;DHT22;64625;50.882;4.376;2022-12-29T06:32:35;10.50;99.90
37984;DHT22;64625;50.882;4.376;2022-12-29T06:35:03;10.50;99.90
37984;DHT22;64625;50.882;4.376;2022-12-29T06:37:29;10.50;99.90
37984;DHT22;64625;50.882;4.376;2022-12-29T06:39:55;10.50;99.90
37984;DHT22;64625;50.882;4.376;2022-12-29T06:42:21;10.50;99.90
37984;DHT22;64625;50.882;4.376;2022-12-29T06:44:47;10.60;99.90
37984;DHT22;64625;50.882;4.376;2022-12-29T06:47:13;10.60;99.90
37984;DHT22;64625;50.882;4.376;2022-12-29T06:49:38;10.60;99.90
37984;DHT22;64625;50.882;4.376;2022-12-29T06:52:04;10.60;99.90
37984;DHT22;64625;50.882;4.376;2022-12-29T06:54:33;10.60;99.90
37984;DHT22;64625;50.882;4.376;2022-12-29T06:56:59;10.70;99.90
37984;DHT22;64625;50.882;4.376;2022-12-29T06:59:25;10.70;99.90
37984;DHT22;64625;50.882;4.376;2022-12-29T07:01:51;10.70;99.90
37984;DHT22;64625;50.882;4.376;2022-12-29T07:04:17;10.70;99.90
37984;DHT22;64625;50.882;4.376;2022-12-29T07:06:43;10.70;99.90
37984;DHT22;64625;50.882;4.376;2022-12-29T07:09:10;10.80;99.90
37984;DHT22;64625;50.882;4.376;2022-12-29T07:11:36;10.80;99.90
37984;DHT22;64625;50.882;4.376;2022-12-29T07:14:02;10.70;99.90
37984;DHT22;64625;50.882;4.376;2022-12-29T07:16:28;10.80;99.90
37984;DHT22;64625;50.882;4.376;2022-12-29T07:18:56;10.80;99.90
37984;DHT22;64625;50.882;4.376;2022-12-29T07:21:22;10.70;99.90
37984;DHT22;64625;50.882;4.376;2022-12-29T07:23:48;10.80;99.90
37984;DHT22;64625;50.882;4.376;2022-12-29T07:26:15;10.80;99.90
37984;DHT22;64625;50.882;4.376;2022-12-29T07:28:43;10.80;99.90
37984;DHT22;64625;50.882;4.376;2022-12-29T07:31:14;10.80;99.90
37984;DHT22;64625;50.882;4.376;2022-12-29T07:33:41;10.90;99.90
37984;DHT22;64625;50.882;4.376;2022-12-29T07:36:09;10.90;99.90
37984;DHT22;64625;50.882;4.376;2022-12-29T07:38:35;10.90;99.90
37984;DHT22;64625;50.882;4.376;2022-12-29T07:41:01;10.90;99.90
37984;DHT22;64625;50.882;4.376;2022-12-29T07:43:26;10.90;99.90
37984;DHT22;64625;50.882;4.376;2022-12-29T07:45:52;10.90;99.90
37984;DHT22;64625;50.882;4.376;2022-12-29T07:48:18;10.90;99.90
37984;DHT22;64625;50.882;4.376;2022-12-29T07:50:44;10.90;99.90
37984;DHT22;64625;50.882;4.376;2022-12-29T07:53:10;10.90;99.90
37984;DHT22;64625;50.882;4.376;2022-12-29T07:55:36;11.00;99.90
37984;DHT22;64625;50.882;4.376;2022-12-29T07:58:02;10.90;99.90
37984;DHT22;64625;50.882;4.376;2022-12-29T08:00:28;10.90;99.90
37984;DHT22;64625;50.882;4.376;2022-12-29T08:02:54;10.90;99.90
37984;DHT22;64625;50.882;4.376;2022-12-29T08:05:19;11.00;99.90
37984;DHT22;64625;50.882;4.376;2022-12-29T08:07:46;11.00;99.90
37984;DHT22;64625;50.882;4.376;2022-12-29T08:10:13;11.00;99.90
37984;DHT22;64625;50.882;4.376;2022-12-29T08:12:40;11.00;99.90
37984;DHT22;64625;50.882;4.376;2022-12-29T08:15:08;11.00;99.90
37984;DHT22;64625;50.882;4.376;2022-12-29T08:17:34;11.00;99.90
37984;DHT22;64625;50.882;4.376;2022-12-29T08:20:00;11.00;99.90
37984;DHT22;64625;50.882;4.376;2022-12-29T08:22:27;11.00;99.90
37984;DHT22;64625;50.882;4.376;2022-12-29T08:24:53;11.00;99.90
37984;DHT22;64625;50.882;4.376;2022-12-29T08:27:19;11.10;99.90
37984;DHT22;64625;50.882;4.376;2022-12-29T08:29:45;11.00;99.90
37984;DHT22;64625;50.882;4.376;2022-12-29T08:32:11;11.10;99.90
37984;DHT22;64625;50.882;4.376;2022-12-29T08:34:37;11.10;99.90
37984;DHT22;64625;50.882;4.376;2022-12-29T08:37:03;11.10;99.90
37984;DHT22;64625;50.882;4.376;2022-12-29T08:39:29;11.10;99.90
37984;DHT22;64625;50.882;4.376;2022-12-29T08:41:55;11.10;99.90
37984;DHT22;64625;50.882;4.376;2022-12-29T08:44:21;11.10;99.90
37984;DHT22;64625;50.882;4.376;2022-12-29T08:46:47;11.10;99.90
37984;DHT22;64625;50.882;4.376;2022-12-29T08:49:13;11.10;99.90
37984;DHT22;64625;50.882;4.376;2022-12-29T08:51:39;11.10;99.90
37984;DHT22;64625;50.882;4.376;2022-12-29T08:54:05;11.10;99.90
37984;DHT22;64625;50.882;4.376;2022-12-29T08:56:31;11.10;99.90
37984;DHT22;64625;50.882;4.376;2022-12-29T08:58:57;11.10;99.90
37984;DHT22;64625;50.882;4.376;2022-12-29T09:01:22;11.10;99.90
37984;DHT22;64625;50.882;4.376;2022-12-29T09:03:48;11.10;99.90
37984;DHT22;64625;50.882;4.376;2022-12-29T09:06:15;11.10;99.90
37984;DHT22;64625;50.882;4.376;2022-12-29T09:08:42;11.10;99.90
37984;DHT22;64625;50.882;4.376;2022-12-29T09:11:18;11.10;99.90
37984;DHT22;64625;50.882;4.376;2022-12-29T09:13:45;11.10;99.90
37984;DHT22;64625;50.882;4.376;2022-12-29T09:16:11;11.00;99.90
37984;DHT22;64625;50.882;4.376;2022-12-29T09:18:37;11.00;99.90
37984;DHT22;64625;50.882;4.376;2022-12-29T09:21:05;11.00;99.90
37984;DHT22;64625;50.882;4.376;2022-12-29T09:23:33;11.00;99.90
37984;DHT22;64625;50.882;4.376;2022-12-29T09:25:59;10.90;99.90
37984;DHT22;64625;50.882;4.376;2022-12-29T09:28:27;10.90;99.90
37984;DHT22;64625;50.882;4.376;2022-12-29T09:30:55;10.90;99.90
37984;DHT22;64625;50.882;4.376;2022-12-29T09:33:20;10.80;99.90
37984;DHT22;64625;50.882;4.376;2022-12-29T09:35:52;10.80;99.90
37984;DHT22;64625;50.882;4.376;2022-12-29T09:38:18;10.70;99.90
37984;DHT22;64625;50.882;4.376;2022-12-29T09:40:50;10.60;99.90
37984;DHT22;64625;50.882;4.376;2022-12-29T09:48:40;10.40;99.90
37984;DHT22;64625;50.882;4.376;2022-12-29T09:51:21;10.40;99.90
37984;DHT22;64625;50.882;4.376;2022-12-29T09:54:19;10.30;99.90
37984;DHT22;64625;50.882;4.376;2022-12-29T09:56:49;10.20;99.90
37984;DHT22;64625;50.882;4.376;2022-12-29T09:59:19;10.20;99.90
37984;DHT22;64625;50.882;4.376;2022-12-29T10:01:46;10.10;99.90
37984;DHT22;64625;50.882;4.376;2022-12-29T10:04:14;10.10;99.90
37984;DHT22;64625;50.882;4.376;2022-12-29T10:06:49;10.10;99.90
37984;DHT22;64625;50.882;4.376;2022-12-29T10:19:49;10.20;99.90
37984;DHT22;64625;50.882;4.376;2022-12-29T10:25:00;10.30;99.90
37984;DHT22;64625;50.882;4.376;2022-12-29T10:27:31;10.30;99.90
37984;DHT22;64625;50.882;4.376;2022-12-29T10:29:59;10.30;99.90
37984;DHT22;64625;50.882;4.376;2022-12-29T10:35:14;10.40;99.90
37984;DHT22;64625;50.882;4.376;2022-12-29T10:40:31;10.40;99.90
37984;DHT22;64625;50.882;4.376;2022-12-29T10:42:59;10.40;99.90
37984;DHT22;64625;50.882;4.376;2022-12-29T10:45:30;10.50;99.90
37984;DHT22;64625;50.882;4.376;2022-12-29T10:48:06;10.50;99.90
37984;DHT22;64625;50.882;4.376;2022-12-29T10:50:34;10.50;99.90
37984;DHT22;64625;50.882;4.376;2022-12-29T10:53:04;10.60;99.90
37984;DHT22;64625;50.882;4.376;2022-12-29T10:55:36;10.60;99.90
37984;DHT22;64625;50.882;4.376;2022-12-29T10:58:06;10.70;99.90
37984;DHT22;64625;50.882;4.376;2022-12-29T11:00:33;10.70;99.90
37984;DHT22;64625;50.882;4.376;2022-12-29T11:03:19;10.80;99.90
37984;DHT22;64625;50.882;4.376;2022-12-29T11:06:15;10.80;99.90
37984;DHT22;64625;50.882;4.376;2022-12-29T11:09:12;10.80;99.90
37984;DHT22;64625;50.882;4.376;2022-12-29T11:11:40;10.90;99.90
37984;DHT22;64625;50.882;4.376;2022-12-29T11:14:18;10.90;99.90
37984;DHT22;64625;50.882;4.376;2022-12-29T11:17:05;10.90;99.90
37984;DHT22;64625;50.882;4.376;2022-12-29T11:19:33;10.90;99.90
37984;DHT22;64625;50.882;4.376;2022-12-29T11:22:22;11.00;99.90
37984;DHT22;64625;50.882;4.376;2022-12-29T11:24:50;11.00;99.90
37984;DHT22;64625;50.882;4.376;2022-12-29T11:27:19;11.00;99.90
37984;DHT22;64625;50.882;4.376;2022-12-29T11:29:49;11.10;99.90
37984;DHT22;64625;50.882;4.376;2022-12-29T11:32:28;11.20;99.90
37984;DHT22;64625;50.882;4.376;2022-12-29T11:34:59;11.20;99.90
37984;DHT22;64625;50.882;4.376;2022-12-29T11:37:32;11.20;99.90
37984;DHT22;64625;50.882;4.376;2022-12-29T11:40:16;11.20;99.90
37984;DHT22;64625;50.882;4.376;2022-12-29T11:42:50;11.30;99.90
37984;DHT22;64625;50.882;4.376;2022-12-29T11:45:25;11.20;99.90
37984;DHT22;64625;50.882;4.376;2022-12-29T11:47:58;11.20;99.90
37984;DHT22;64625;50.882;4.376;2022-12-29T11:50:31;11.20;99.90
37984;DHT22;64625;50.882;4.376;2022-12-29T11:53:08;11.20;99.90
37984;DHT22;64625;50.882;4.376;2022-12-29T11:55:40;11.10;99.90
37984;DHT22;64625;50.882;4.376;2022-12-29T11:58:16;11.10;99.90
37984;DHT22;64625;50.882;4.376;2022-12-29T12:00:43;11.10;99.90
37984;DHT22;64625;50.882;4.376;2022-12-29T12:03:16;11.10;99.90
37984;DHT22;64625;50.882;4.376;2022-12-29T12:06:03;11.00;99.90
37984;DHT22;64625;50.882;4.376;2022-12-29T12:11:14;11.00;99.90
37984;DHT22;64625;50.882;4.376;2022-12-29T12:16:21;11.00;99.90
37984;DHT22;64625;50.882;4.376;2022-12-29T12:19:02;11.00;99.90
37984;DHT22;64625;50.882;4.376;2022-12-29T12:21:38;10.90;99.90
37984;DHT22;64625;50.882;4.376;2022-12-29T12:26:59;11.00;99.90
37984;DHT22;64625;50.882;4.376;2022-12-29T12:29:50;10.90;99.90
37984;DHT22;64625;50.882;4.376;2022-12-29T12:32:29;10.90;99.90
37984;DHT22;64625;50.882;4.376;2022-12-29T12:35:03;10.90;99.90
37984;DHT22;64625;50.882;4.376;2022-12-29T12:40:32;10.90;99.90
37984;DHT22;64625;50.882;4.376;2022-12-29T12:46:12;11.00;99.90
37984;DHT22;64625;50.882;4.376;2022-12-29T12:55:10;11.00;99.90
37984;DHT22;64625;50.882;4.376;2022-12-29T13:00:13;11.00;99.90
37984;DHT22;64625;50.882;4.376;2022-12-29T13:05:50;11.00;99.90
37984;DHT22;64625;50.882;4.376;2022-12-29T13:11:43;11.00;99.90
37984;DHT22;64625;50.882;4.376;2022-12-29T13:16:52;11.00;99.90
37984;DHT22;64625;50.882;4.376;2022-12-29T13:19:34;11.00;99.90
37984;DHT22;64625;50.882;4.376;2022-12-29T13:22:15;11.00;99.90
37984;DHT22;64625;50.882;4.376;2022-12-29T13:24:51;11.00;99.90
37984;DHT22;64625;50.882;4.376;2022-12-29T13:36:21;11.10;99.90
37984;DHT22;64625;50.882;4.376;2022-12-29T13:38:54;11.10;99.90
37984;DHT22;64625;50.882;4.376;2022-12-29T13:41:45;11.10;99.90
37984;DHT22;64625;50.882;4.376;2022-12-29T13:44:17;11.10;99.90
37984;DHT22;64625;50.882;4.376;2022-12-29T13:46:46;11.20;99.90
37984;DHT22;64625;50.882;4.376;2022-12-29T13:52:10;11.10;99.90
37984;DHT22;64625;50.882;4.376;2022-12-29T14:04:11;11.10;99.90
37984;DHT22;64625;50.882;4.376;2022-12-29T14:06:36;11.00;99.90
37984;DHT22;64625;50.882;4.376;2022-12-29T14:09:30;11.00;99.90
37984;DHT22;64625;50.882;4.376;2022-12-29T14:11:57;11.00;99.90
37984;DHT22;64625;50.882;4.376;2022-12-29T14:14:29;11.00;99.90
37984;DHT22;64625;50.882;4.376;2022-12-29T14:17:10;11.00;99.90
37984;DHT22;64625;50.882;4.376;2022-12-29T14:19:41;11.00;99.90
37984;DHT22;64625;50.882;4.376;2022-12-29T14:22:08;11.00;99.90
37984;DHT22;64625;50.882;4.376;2022-12-29T14:29:48;11.00;99.90
37984;DHT22;64625;50.882;4.376;2022-12-29T14:34:56;11.00;99.90
37984;DHT22;64625;50.882;4.376;2022-12-29T14:42:31;10.80;99.90
37984;DHT22;64625;50.882;4.376;2022-12-29T14:45:06;10.60;99.90
37984;DHT22;64625;50.882;4.376;2022-12-29T14:47:43;10.40;99.90
37984;DHT22;64625;50.882;4.376;2022-12-29T14:55:54;9.90;99.90
37984;DHT22;64625;50.882;4.376;2022-12-29T14:58:31;9.70;99.90
37984;DHT22;64625;50.882;4.376;2022-12-29T15:00:59;9.60;99.90
37984;DHT22;64625;50.882;4.376;2022-12-29T15:06:08;9.50;99.90
37984;DHT22;64625;50.882;4.376;2022-12-29T15:08:52;9.40;99.90
37984;DHT22;64625;50.882;4.376;2022-12-29T15:11:31;9.30;99.90
37984;DHT22;64625;50.882;4.376;2022-12-29T15:16:54;9.20;99.90
37984;DHT22;64625;50.882;4.376;2022-12-29T15:19:24;9.10;99.90
37984;DHT22;64625;50.882;4.376;2022-12-29T15:21:52;9.10;99.90
37984;DHT22;64625;50.882;4.376;2022-12-29T15:24:18;9.10;99.90
37984;DHT22;64625;50.882;4.376;2022-12-29T15:26:50;9.00;99.90
37984;DHT22;64625;50.882;4.376;2022-12-29T15:29:37;8.90;99.90
37984;DHT22;64625;50.882;4.376;2022-12-29T15:34:50;8.90;99.90
37984;DHT22;64625;50.882;4.376;2022-12-29T15:37:24;8.80;99.90
37984;DHT22;64625;50.882;4.376;2022-12-29T15:39:52;8.80;99.90
37984;DHT22;64625;50.882;4.376;2022-12-29T15:45:04;8.80;99.90
37984;DHT22;64625;50.882;4.376;2022-12-29T15:47:34;8.70;99.90
37984;DHT22;64625;50.882;4.376;2022-12-29T15:50:05;8.80;99.90
37984;DHT22;64625;50.882;4.376;2022-12-29T15:52:33;8.70;99.90
37984;DHT22;64625;50.882;4.376;2022-12-29T15:55:00;8.70;99.90
37984;DHT22;64625;50.882;4.376;2022-12-29T15:57:36;8.70;99.90
37984;DHT22;64625;50.882;4.376;2022-12-29T16:00:03;8.70;99.90
37984;DHT22;64625;50.882;4.376;2022-12-29T16:02:48;8.70;99.90
37984;DHT22;64625;50.882;4.376;2022-12-29T16:05:17;8.70;99.90
37984;DHT22;64625;50.882;4.376;2022-12-29T16:07:58;8.60;99.90
37984;DHT22;64625;50.882;4.376;2022-12-29T16:10:39;8.60;99.90
37984;DHT22;64625;50.882;4.376;2022-12-29T16:13:31;8.60;99.90
37984;DHT22;64625;50.882;4.376;2022-12-29T16:16:06;8.60;99.90
37984;DHT22;64625;50.882;4.376;2022-12-29T16:18:35;8.50;99.90
37984;DHT22;64625;50.882;4.376;2022-12-29T16:21:12;8.50;99.90
37984;DHT22;64625;50.882;4.376;2022-12-29T16:23:45;8.50;99.90
37984;DHT22;64625;50.882;4.376;2022-12-29T16:26:19;8.40;99.90
37984;DHT22;64625;50.882;4.376;2022-12-29T16:28:47;8.40;99.90
37984;DHT22;64625;50.882;4.376;2022-12-29T16:33:48;8.40;99.90
37984;DHT22;64625;50.882;4.376;2022-12-29T16:36:32;8.40;99.90
37984;DHT22;64625;50.882;4.376;2022-12-29T16:41:50;8.40;99.90
37984;DHT22;64625;50.882;4.376;2022-12-29T16:44:22;8.40;99.90
37984;DHT22;64625;50.882;4.376;2022-12-29T16:46:59;8.40;99.90
37984;DHT22;64625;50.882;4.376;2022-12-29T16:49:26;8.40;99.90
37984;DHT22;64625;50.882;4.376;2022-12-29T16:51:53;8.40;99.90
37984;DHT22;64625;50.882;4.376;2022-12-29T16:54:32;8.40;99.90
37984;DHT22;64625;50.882;4.376;2022-12-29T16:56:59;8.40;99.90
37984;DHT22;64625;50.882;4.376;2022-12-29T16:59:27;8.40;99.90
37984;DHT22;64625;50.882;4.376;2022-12-29T17:01:58;8.30;99.90
37984;DHT22;64625;50.882;4.376;2022-12-29T17:04:25;8.30;99.90
37984;DHT22;64625;50.882;4.376;2022-12-29T17:06:50;8.30;99.90
37984;DHT22;64625;50.882;4.376;2022-12-29T17:09:27;8.30;99.90
37984;DHT22;64625;50.882;4.376;2022-12-29T17:11:57;8.30;99.90
37984;DHT22;64625;50.882;4.376;2022-12-29T17:14:41;8.30;99.90
37984;DHT22;64625;50.882;4.376;2022-12-29T17:19:53;8.30;99.90
37984;DHT22;64625;50.882;4.376;2022-12-29T17:22:22;8.30;99.90
37984;DHT22;64625;50.882;4.376;2022-12-29T17:24:58;8.30;99.90
37984;DHT22;64625;50.882;4.376;2022-12-29T17:27:37;8.30;99.90
37984;DHT22;64625;50.882;4.376;2022-12-29T17:30:27;8.30;99.90
37984;DHT22;64625;50.882;4.376;2022-12-29T17:33:05;8.30;99.90
37984;DHT22;64625;50.882;4.376;2022-12-29T17:35:31;8.30;99.90
37984;DHT22;64625;50.882;4.376;2022-12-29T17:37:57;8.30;99.90
37984;DHT22;64625;50.882;4.376;2022-12-29T17:40:27;8.30;99.90
37984;DHT22;64625;50.882;4.376;2022-12-29T17:42:57;8.30;99.90
37984;DHT22;64625;50.882;4.376;2022-12-29T17:45:28;8.20;99.90
37984;DHT22;64625;50.882;4.376;2022-12-29T17:47:56;8.30;99.90
37984;DHT22;64625;50.882;4.376;2022-12-29T17:50:28;8.30;99.90
37984;DHT22;64625;50.882;4.376;2022-12-29T17:52:58;8.20;99.90
37984;DHT22;64625;50.882;4.376;2022-12-29T17:55:24;8.20;99.90
37984;DHT22;64625;50.882;4.376;2022-12-29T17:57:51;8.20;99.90
37984;DHT22;64625;50.882;4.376;2022-12-29T18:00:26;8.20;99.90
37984;DHT22;64625;50.882;4.376;2022-12-29T18:03:02;8.30;99.90
37984;DHT22;64625;50.882;4.376;2022-12-29T18:05:30;8.20;99.90
37984;DHT22;64625;50.882;4.376;2022-12-29T18:07:58;8.20;99.90
37984;DHT22;64625;50.882;4.376;2022-12-29T18:10:28;8.20;99.90
37984;DHT22;64625;50.882;4.376;2022-12-29T18:12:58;8.20;99.90
37984;DHT22;64625;50.882;4.376;2022-12-29T18:15:27;8.20;99.90
37984;DHT22;64625;50.882;4.376;2022-12-29T18:17:59;8.20;99.90
37984;DHT22;64625;50.882;4.376;2022-12-29T18:20:28;8.20;99.90
37984;DHT22;64625;50.882;4.376;2022-12-29T18:22:54;8.20;99.90
37984;DHT22;64625;50.882;4.376;2022-12-29T18:27:48;8.20;99.90